Time;durP1;ratioP1;P1;durP2;ratioP2;P2;SDS_P1;SDS_P2;PMS_P1;PMS_P2;Temp;Humidity;BMP_temperature;BMP_pressure;BME280_temperature;BME280_humidity;BME280_pressure;Samples;Min_cycle;Max_cycle;Signal;HPM_P1;HPM_P2
2020/12/16 00:01:51;;;;;;;65.55;25.80;;;8.60;99.90;;;;;;5097696;28;20044;-82
2020/12/16 00:04:17;;;;;;;68.18;27.58;;;8.60;99.90;;;;;;5096540;28;20097;-83
2020/12/16 00:06:42;;;;;;;69.40;27.70;;;10.30;99.90;;;;;;5096639;28;20044;-82
2020/12/16 00:09:08;;;;;;;73.07;28.52;;;8.70;99.90;;;;;;5096799;28;20075;-82
2020/12/16 00:11:34;;;;;;;72.40;28.67;;;8.70;99.90;;;;;;5096471;28;20410;-81
2020/12/16 00:14:00;;;;;;;68.53;27.70;;;8.70;99.90;;;;;;5096097;28;20509;-82
2020/12/16 00:16:26;;;;;;;65.97;26.08;;;8.60;99.90;;;;;;5096559;28;20062;-83
2020/12/16 00:18:52;;;;;;;65.07;26.48;;;8.70;99.90;;;;;;5096470;28;20054;-82
2020/12/16 00:21:20;;;;;;;67.47;28.67;;;8.70;99.90;;;;;;5097071;28;20146;-82
2020/12/16 00:23:46;;;;;;;72.35;27.70;;;8.70;99.90;;;;;;5096714;28;20039;-82
2020/12/16 00:26:12;;;;;;;68.60;27.40;;;8.70;99.90;;;;;;5097475;28;20142;-81
2020/12/16 00:28:38;;;;;;;69.85;27.75;;;8.70;99.90;;;;;;5095883;28;20097;-81
2020/12/16 00:31:03;;;;;;;66.63;26.73;;;8.80;99.90;;;;;;5095961;28;20040;-82
2020/12/16 00:33:30;;;;;;;62.45;25.55;;;9.90;99.90;;;;;;5095129;28;20055;-83
2020/12/16 00:35:56;;;;;;;55.95;25.10;;;8.90;99.90;;;;;;5096787;28;20044;-82
2020/12/16 00:38:21;;;;;;;56.10;24.80;;;9.00;99.90;;;;;;5097672;28;20044;-83
2020/12/16 00:40:47;;;;;;;53.45;24.65;;;9.00;99.90;;;;;;5094898;28;20051;-82
2020/12/16 00:43:12;;;;;;;57.45;26.88;;;9.00;99.90;;;;;;5097073;28;20102;-83
2020/12/16 00:45:38;;;;;;;61.72;25.63;;;8.90;99.90;;;;;;5095463;28;20044;-84
2020/12/16 00:48:04;;;;;;;62.95;27.52;;;8.70;99.90;;;;;;5096229;28;20036;-81
2020/12/16 00:50:30;;;;;;;64.75;27.17;;;8.70;99.90;;;;;;5097091;28;20040;-83
2020/12/16 00:52:56;;;;;;;61.55;26.20;;;8.70;99.90;;;;;;5094485;28;20080;-82
2020/12/16 00:55:21;;;;;;;61.13;26.17;;;8.60;99.90;;;;;;5097791;28;20048;-83
2020/12/16 00:57:47;;;;;;;66.25;27.17;;;8.70;99.90;;;;;;5096743;28;20130;-83
2020/12/16 01:00:15;;;;;;;65.70;28.45;;;8.60;99.90;;;;;;5097123;28;20518;-83
2020/12/16 01:02:41;;;;;;;59.45;26.63;;;8.60;99.90;;;;;;5108811;28;20086;-81
2020/12/16 01:05:07;;;;;;;72.18;27.98;;;8.60;99.90;;;;;;5095812;28;20039;-81
2020/12/16 01:07:33;;;;;;;74.50;28.15;;;8.60;99.90;;;;;;5090332;28;20495;-80
2020/12/16 01:09:59;;;;;;;64.95;26.35;;;8.60;99.90;;;;;;5089332;28;20055;-81
2020/12/16 01:12:25;;;;;;;61.67;26.98;;;8.60;99.90;;;;;;5090086;28;20044;-81
2020/12/16 01:14:50;;;;;;;63.22;27.02;;;8.50;99.90;;;;;;5091617;28;20126;-80
2020/12/16 01:17:16;;;;;;;59.03;26.10;;;8.40;99.90;;;;;;5089679;28;20071;-80
2020/12/16 01:19:41;;;;;;;65.55;27.10;;;8.30;99.90;;;;;;5090275;28;20401;-81
2020/12/16 01:22:07;;;;;;;69.28;27.98;;;8.30;99.90;;;;;;5088648;28;20461;-81
2020/12/16 01:24:34;;;;;;;77.85;30.40;;;8.40;99.90;;;;;;5090009;28;20545;-80
2020/12/16 01:26:59;;;;;;;67.07;28.65;;;8.40;99.90;;;;;;5091428;28;20115;-80
2020/12/16 01:29:25;;;;;;;73.75;28.00;;;8.40;99.90;;;;;;5091079;28;20143;-81
2020/12/16 01:31:50;;;;;;;76.15;29.92;;;8.50;99.90;;;;;;5071600;28;20047;-80
2020/12/16 01:34:19;;;;;;;74.82;30.77;;;8.50;99.90;;;;;;5070627;28;20048;-81
2020/12/16 01:36:46;;;;;;;80.13;30.67;;;8.40;99.90;;;;;;5087643;28;20033;-80
2020/12/16 01:39:13;;;;;;;71.20;28.30;;;8.40;99.90;;;;;;5090371;28;20074;-81
2020/12/16 01:41:39;;;;;;;75.53;29.55;;;8.40;99.90;;;;;;5093083;28;20408;-81
2020/12/16 01:44:10;;;;;;;70.28;28.83;;;8.30;99.90;;;;;;5093429;28;20044;-81
2020/12/16 01:46:36;;;;;;;66.72;27.20;;;8.30;99.90;;;;;;5094532;28;20477;-81
2020/12/16 01:49:02;;;;;;;69.53;27.63;;;8.20;99.90;;;;;;5093349;28;20102;-81
2020/12/16 01:51:29;;;;;;;71.63;29.38;;;8.20;99.90;;;;;;5093771;28;20047;-81
2020/12/16 01:53:56;;;;;;;66.40;27.75;;;8.30;99.90;;;;;;5094393;28;20032;-81
2020/12/16 01:56:25;;;;;;;65.32;27.08;;;8.40;99.90;;;;;;5093806;28;20508;-81
2020/12/16 01:58:53;;;;;;;63.75;28.40;;;8.40;99.90;;;;;;5094223;28;20036;-80
2020/12/16 02:01:23;;;;;;;72.53;28.75;;;8.40;99.90;;;;;;5092877;28;20044;-81
2020/12/16 02:03:51;;;;;;;;;;;8.30;99.90;;;;;;5093449;28;20048;-80
2020/12/16 02:06:20;;;;;;;62.03;25.17;;;8.20;99.90;;;;;;5092921;28;20585;-80
2020/12/16 02:08:58;;;;;;;68.28;29.02;;;8.20;99.90;;;;;;5091478;28;20093;-80
2020/12/16 02:11:24;;;;;;;66.47;28.00;;;8.20;99.90;;;;;;5089442;28;20043;-81
2020/12/16 02:13:49;;;;;;;73.35;29.88;;;8.10;99.90;;;;;;5092371;28;20058;-81
2020/12/16 02:16:16;;;;;;;74.20;29.35;;;8.10;99.90;;;;;;5094086;28;20402;-80
2020/12/16 02:18:46;;;;;;;71.30;30.08;;;8.10;99.90;;;;;;5093546;28;20460;-80
2020/12/16 02:21:12;;;;;;;78.00;30.25;;;8.10;99.90;;;;;;5092933;28;20085;-80
2020/12/16 02:23:39;;;;;;;74.43;29.58;;;8.10;99.90;;;;;;5094129;28;20035;-80
2020/12/16 02:26:06;;;;;;;70.20;29.42;;;7.90;99.90;;;;;;5094329;28;20543;-81
2020/12/16 02:28:32;;;;;;;77.00;30.77;;;8.00;99.90;;;;;;5092866;28;20085;-80
2020/12/16 02:30:58;;;;;;;72.70;30.02;;;7.90;99.90;;;;;;5093023;28;20131;-81
2020/12/16 02:33:23;;;;;;;75.85;31.08;;;7.90;99.90;;;;;;5092650;28;20072;-80
2020/12/16 02:35:49;;;;;;;73.70;30.02;;;7.90;99.90;;;;;;5092926;28;20036;-81
2020/12/16 02:38:15;;;;;;;75.47;31.08;;;7.90;99.90;;;;;;5092689;28;20090;-80
2020/12/16 02:40:40;;;;;;;74.88;31.58;;;7.80;99.90;;;;;;5092452;28;20153;-80
2020/12/16 02:43:06;;;;;;;73.35;29.63;;;7.80;99.90;;;;;;5094676;28;20044;-80
2020/12/16 02:45:32;;;;;;;74.13;30.35;;;7.70;99.90;;;;;;5096612;28;20040;-80
2020/12/16 02:47:58;;;;;;;76.82;30.98;;;7.70;99.90;;;;;;5096815;28;20035;-80
2020/12/16 02:50:23;;;;;;;74.68;29.48;;;7.50;99.90;;;;;;5096361;28;20550;-79
2020/12/16 02:52:49;;;;;;;73.18;30.13;;;7.60;99.90;;;;;;5096667;28;20063;-81
2020/12/16 02:55:14;;;;;;;71.25;28.77;;;7.50;99.90;;;;;;5097111;28;20040;-81
2020/12/16 02:57:40;;;;;;;65.68;26.80;;;7.20;99.90;;;;;;5097974;28;20036;-81
2020/12/16 03:00:08;;;;;;;72.63;28.80;;;7.00;99.90;;;;;;5097183;28;20386;-81
2020/12/16 03:02:33;;;;;;;61.67;25.67;;;7.00;99.90;;;;;;5096099;28;20093;-81
2020/12/16 03:04:59;;;;;;;73.13;29.15;;;6.70;99.90;;;;;;5095979;28;20040;-81
2020/12/16 03:07:24;;;;;;;72.45;27.80;;;6.70;99.90;;;;;;5097950;28;20036;-81
2020/12/16 03:09:50;;;;;;;75.28;28.25;;;6.70;99.90;;;;;;5097589;28;20085;-82
2020/12/16 03:12:16;;;;;;;65.88;27.15;;;6.60;99.90;;;;;;5096333;28;20471;-81
2020/12/16 03:14:43;;;;;;;75.88;28.88;;;6.60;99.90;;;;;;5096508;28;20067;-82
2020/12/16 03:17:09;;;;;;;66.63;26.83;;;6.60;99.90;;;;;;5096205;28;20082;-81
2020/12/16 03:19:35;;;;;;;77.78;26.35;;;6.50;99.90;;;;;;5097481;28;20074;-81
2020/12/16 03:22:00;;;;;;;73.28;27.58;;;6.40;99.90;;;;;;5096803;28;20040;-81
2020/12/16 03:24:26;;;;;;;74.13;28.70;;;6.50;99.90;;;;;;5096292;28;20051;-81
2020/12/16 03:26:52;;;;;;;75.25;27.90;;;6.50;99.90;;;;;;5096395;28;20036;-81
2020/12/16 03:29:17;;;;;;;74.72;28.40;;;6.50;99.90;;;;;;5095545;28;20040;-81
2020/12/16 03:31:43;;;;;;;72.65;27.45;;;6.60;99.90;;;;;;5097531;28;20115;-81
2020/12/16 03:34:09;;;;;;;79.07;29.73;;;6.70;99.90;;;;;;5096183;28;20504;-81
2020/12/16 03:36:35;;;;;;;74.05;27.25;;;6.80;99.90;;;;;;5095833;28;20121;-81
2020/12/16 03:39:01;;;;;;;85.07;29.58;;;6.80;99.90;;;;;;5096706;28;20486;-81
2020/12/16 03:41:27;;;;;;;66.68;27.15;;;6.80;99.90;;;;;;5097135;28;20044;-81
2020/12/16 03:43:52;;;;;;;66.28;25.40;;;6.80;99.90;;;;;;5096017;28;20504;-81
2020/12/16 03:46:18;;;;;;;59.60;24.73;;;6.80;99.90;;;;;;5097610;28;20046;-81
2020/12/16 03:48:44;;;;;;;52.90;23.95;;;6.80;99.90;;;;;;5096692;28;20067;-81
2020/12/16 03:51:13;;;;;;;58.92;25.10;;;6.80;99.90;;;;;;5095780;28;20043;-81
2020/12/16 03:53:39;;;;;;;63.13;26.67;;;6.90;99.90;;;;;;5096509;28;20494;-81
2020/12/16 03:56:05;;;;;;;60.63;26.40;;;6.90;99.90;;;;;;5097606;28;20040;-82
2020/12/16 03:58:31;;;;;;;58.00;25.25;;;6.90;99.90;;;;;;5096127;28;20103;-81
2020/12/16 04:00:57;;;;;;;53.55;23.40;;;6.60;99.90;;;;;;5096820;28;20043;-81
2020/12/16 04:03:23;;;;;;;49.95;23.23;;;6.60;99.90;;;;;;5095670;28;20513;-81
2020/12/16 04:05:48;;;;;;;51.67;22.90;;;6.60;99.90;;;;;;5095539;28;20043;-82
2020/12/16 04:08:15;;;;;;;53.83;23.73;;;6.50;99.90;;;;;;5097084;28;20086;-81
2020/12/16 04:10:40;;;;;;;61.25;26.15;;;6.60;99.90;;;;;;5093695;28;20074;-82
2020/12/16 04:13:06;;;;;;;61.08;26.92;;;6.60;99.90;;;;;;5096646;28;20079;-81
2020/12/16 04:15:31;;;;;;;63.53;29.73;;;6.70;99.90;;;;;;5095939;28;20397;-81
2020/12/16 04:17:57;;;;;;;68.47;28.23;;;6.70;99.90;;;;;;5094768;28;20093;-81
2020/12/16 04:20:23;;;;;;;68.95;28.10;;;6.70;99.90;;;;;;5095697;28;20080;-81
2020/12/16 04:22:48;;;;;;;69.55;28.17;;;6.80;99.90;;;;;;5096371;28;20109;-81
2020/12/16 04:25:15;;;;;;;71.38;28.38;;;6.80;99.90;;;;;;5095920;28;20044;-81
2020/12/16 04:27:40;;;;;;;70.57;27.83;;;6.70;99.90;;;;;;5096150;28;20036;-81
2020/12/16 04:30:06;;;;;;;68.00;27.20;;;6.70;99.90;;;;;;5095724;28;20040;-81
2020/12/16 04:32:31;;;;;;;70.53;29.63;;;6.60;99.90;;;;;;5094747;28;20043;-81
2020/12/16 04:34:57;;;;;;;68.47;28.50;;;6.60;99.90;;;;;;5095121;28;20036;-81
2020/12/16 04:37:23;;;;;;;71.20;28.23;;;6.50;99.90;;;;;;5094598;28;20120;-81
2020/12/16 04:39:48;;;;;;;74.70;28.13;;;6.40;99.90;;;;;;5094306;28;20040;-81
2020/12/16 04:42:15;;;;;;;63.08;25.60;;;6.30;99.90;;;;;;5096789;28;20032;-81
2020/12/16 04:44:41;;;;;;;57.90;23.95;;;6.20;99.90;;;;;;5094770;28;20446;-81
2020/12/16 04:47:07;;;;;;;57.22;23.83;;;6.00;99.90;;;;;;5094950;28;20040;-81
2020/12/16 04:49:33;;;;;;;56.15;22.80;;;5.60;99.90;;;;;;5095236;28;20042;-81
2020/12/16 04:52:00;;;;;;;52.50;22.05;;;5.00;99.90;;;;;;5095878;28;20844;-81
2020/12/16 04:54:25;;;;;;;56.15;22.15;;;4.90;99.90;;;;;;5094011;28;20047;-81
2020/12/16 04:56:52;;;;;;;58.25;23.02;;;4.90;99.90;;;;;;5094391;28;20040;-81
2020/12/16 04:59:19;;;;;;;57.63;22.40;;;5.10;99.90;;;;;;5094693;28;20047;-80
2020/12/16 05:01:44;;;;;;;59.83;24.58;;;5.10;99.90;;;;;;5095379;28;20050;-80
2020/12/16 05:04:10;;;;;;;58.25;22.60;;;5.20;99.90;;;;;;5094835;28;20035;-81
2020/12/16 05:06:37;;;;;;;59.85;24.00;;;5.20;99.90;;;;;;5094378;28;20069;-82
2020/12/16 05:09:09;;;;;;;64.90;25.45;;;5.30;99.90;;;;;;5093395;28;20042;-81
2020/12/16 05:11:37;;;;;;;64.18;25.42;;;5.30;99.90;;;;;;5092364;28;20046;-81
2020/12/16 05:14:08;;;;;;;54.55;24.27;;;5.40;99.90;;;;;;5095207;28;20073;-82
2020/12/16 05:16:50;;;;;;;59.03;23.75;;;5.40;99.90;;;;;;5093545;28;20036;-82
2020/12/16 05:19:28;;;;;;;56.22;22.77;;;5.20;99.90;;;;;;5093493;28;20044;-81
2020/12/16 05:22:13;;;;;;;58.58;22.65;;;5.40;99.90;;;;;;5094079;28;20036;-81
2020/12/16 05:24:39;;;;;;;50.55;20.38;;;5.60;99.90;;;;;;5094094;28;20047;-81
2020/12/16 05:27:07;;;;;;;51.95;22.27;;;5.30;99.90;;;;;;5095541;28;20032;-81
2020/12/16 05:29:33;;;;;;;49.22;21.83;;;5.30;99.90;;;;;;5093014;28;20051;-81
2020/12/16 05:32:14;;;;;;;57.42;22.77;;;5.50;99.90;;;;;;5095956;28;20044;-81
2020/12/16 05:34:40;;;;;;;54.03;22.38;;;5.70;99.90;;;;;;5095279;28;20114;-81
2020/12/16 05:37:28;;;;;;;55.42;23.25;;;5.70;99.90;;;;;;5095145;28;20032;-81
2020/12/16 05:39:55;;;;;;;49.72;20.80;;;5.70;99.90;;;;;;5093393;28;20036;-81
2020/12/16 05:42:23;;;;;;;46.60;20.30;;;5.70;99.90;;;;;;5094961;28;20569;-81
2020/12/16 05:44:49;;;;;;;49.80;20.83;;;5.50;99.90;;;;;;5094728;28;20032;-81
2020/12/16 05:47:15;;;;;;;51.47;20.85;;;5.40;99.90;;;;;;5087692;28;20036;-81
2020/12/16 05:49:41;;;;;;;54.38;22.52;;;5.40;99.90;;;;;;5090983;28;20123;-81
2020/12/16 05:52:06;;;;;;;52.22;21.85;;;5.50;99.90;;;;;;5091362;28;20115;-82
2020/12/16 05:54:36;;;;;;;49.55;21.67;;;5.60;99.90;;;;;;5089517;28;20151;-81
2020/12/16 05:57:14;;;;;;;52.17;21.57;;;5.60;99.90;;;;;;5089214;28;20040;-81
2020/12/16 05:59:40;;;;;;;47.97;20.75;;;5.70;99.90;;;;;;5089132;28;20407;-81
2020/12/16 06:02:07;;;;;;;44.58;19.58;;;5.50;99.90;;;;;;5090193;28;20068;-81
2020/12/16 06:04:35;;;;;;;44.67;19.98;;;5.40;99.90;;;;;;5089943;28;20070;-81
2020/12/16 06:07:01;;;;;;;50.45;20.23;;;5.20;99.90;;;;;;5091120;28;20074;-82
2020/12/16 06:09:30;;;;;;;44.85;19.92;;;5.20;99.90;;;;;;5090391;28;20123;-81
2020/12/16 06:12:03;;;;;;;50.55;20.67;;;5.30;99.90;;;;;;5088038;28;20059;-81
2020/12/16 06:14:33;;;;;;;47.33;20.17;;;5.30;99.90;;;;;;5091342;28;20048;-81
2020/12/16 06:17:07;;;;;;;;;;;5.30;99.90;;;;;;5090438;28;20546;-81
2020/12/16 06:19:36;;;;;;;41.90;17.77;;;5.30;99.90;;;;;;5088751;28;20010;-81
2020/12/16 06:22:10;;;;;;;47.05;19.42;;;5.30;99.90;;;;;;5091227;28;20090;-81
2020/12/16 06:24:41;;;;;;;45.45;19.15;;;5.30;99.90;;;;;;5089397;28;20051;-81
2020/12/16 06:27:09;;;;;;;44.75;18.90;;;5.40;99.90;;;;;;5089194;28;20036;-81
2020/12/16 06:29:38;;;;;;;45.25;18.83;;;5.40;99.90;;;;;;5088894;28;20043;-81
2020/12/16 06:32:06;;;;;;;40.03;17.42;;;5.40;99.90;;;;;;5090592;28;20048;-81
2020/12/16 06:34:37;;;;;;;38.92;17.27;;;5.50;99.90;;;;;;5089589;28;20055;-81
2020/12/16 06:37:03;;;;;;;37.78;17.35;;;5.50;99.90;;;;;;5088512;28;20144;-81
2020/12/16 06:39:29;;;;;;;44.47;17.83;;;5.50;99.90;;;;;;5088250;28;20036;-81
2020/12/16 06:41:57;;;;;;;38.67;16.40;;;5.60;99.90;;;;;;5092592;28;20051;-81
2020/12/16 06:44:22;;;;;;;34.88;16.98;;;5.50;99.90;;;;;;5092356;28;20081;-81
2020/12/16 06:46:49;;;;;;;36.38;17.10;;;5.40;99.90;;;;;;5091416;28;20048;-81
2020/12/16 06:49:29;;;;;;;33.75;15.63;;;5.20;99.90;;;;;;5090861;28;20346;-81
2020/12/16 06:51:58;;;;;;;36.22;16.65;;;5.20;99.90;;;;;;5093090;28;20393;-81
2020/12/16 06:54:25;;;;;;;36.22;16.45;;;5.00;99.90;;;;;;5091913;28;20036;-82
2020/12/16 06:57:14;;;;;;;38.13;16.08;;;4.90;99.90;;;;;;5091201;28;20036;-81
2020/12/16 06:59:45;;;;;;;34.70;15.30;;;5.00;99.90;;;;;;5093118;28;20409;-81
2020/12/16 07:02:11;;;;;;;28.05;13.75;;;4.90;99.90;;;;;;5092346;28;20054;-81
2020/12/16 07:04:37;;;;;;;35.60;16.30;;;4.90;99.90;;;;;;5092697;28;20319;-81
2020/12/16 07:07:04;;;;;;;32.00;15.07;;;4.90;99.90;;;;;;5090921;28;20085;-81
2020/12/16 07:09:32;;;;;;;32.15;15.70;;;5.00;99.90;;;;;;5091834;28;20489;-81
2020/12/16 07:11:58;;;;;;;35.00;15.70;;;5.10;99.90;;;;;;5090948;28;20086;-81
2020/12/16 07:14:25;;;;;;;28.92;14.18;;;5.20;99.90;;;;;;5092601;28;20428;-81
2020/12/16 07:16:51;;;;;;;31.95;16.25;;;5.10;99.90;;;;;;5090861;28;20516;-80
2020/12/16 07:19:26;;;;;;;27.48;14.27;;;5.20;99.90;;;;;;5092236;28;20040;-82
2020/12/16 07:21:52;;;;;;;29.20;14.18;;;5.20;99.90;;;;;;5093420;28;20040;-82
2020/12/16 07:24:19;;;;;;;28.80;14.18;;;5.20;99.90;;;;;;5091743;28;20107;-80
2020/12/16 07:26:47;;;;;;;29.63;14.43;;;5.20;99.90;;;;;;5091401;28;20553;-82
2020/12/16 07:29:29;;;;;;;30.38;15.18;;;5.10;99.90;;;;;;5073598;28;20729;-81
2020/12/16 07:32:03;;;;;;;31.02;14.48;;;4.90;99.90;;;;;;5077069;28;20040;-82
2020/12/16 07:34:30;;;;;;;34.33;16.30;;;4.80;99.90;;;;;;5074682;28;20059;-81
2020/12/16 07:36:58;;;;;;;32.75;15.65;;;4.80;99.90;;;;;;5075801;28;20092;-81
2020/12/16 07:39:24;;;;;;;35.47;16.45;;;4.90;99.90;;;;;;5088241;28;20044;-82
2020/12/16 07:41:51;;;;;;;35.65;15.65;;;4.90;99.90;;;;;;5095942;28;20310;-82
2020/12/16 07:44:16;;;;;;;34.45;14.70;;;5.00;99.90;;;;;;5096665;28;20040;-82
2020/12/16 07:46:42;;;;;;;31.55;15.10;;;5.00;99.90;;;;;;5097214;28;20085;-82
2020/12/16 07:49:11;;;;;;;28.00;13.73;;;5.00;99.90;;;;;;5095701;28;20040;-82
2020/12/16 07:51:37;;;;;;;31.75;16.15;;;5.00;99.90;;;;;;5096580;28;20048;-81
2020/12/16 07:54:02;;;;;;;31.20;15.40;;;4.90;99.90;;;;;;5097093;28;20504;-81
2020/12/16 07:56:29;;;;;;;30.50;15.20;;;4.90;99.90;;;;;;5095484;28;20043;-82
2020/12/16 07:58:54;;;;;;;31.05;16.92;;;5.00;99.90;;;;;;5094815;28;20110;-82
2020/12/16 08:01:20;;;;;;;30.92;15.48;;;5.00;99.90;;;;;;5096757;28;20064;-81
2020/12/16 08:03:46;;;;;;;34.25;16.75;;;5.10;99.90;;;;;;5097110;28;20175;-82
2020/12/16 08:06:12;;;;;;;33.95;17.38;;;5.30;99.90;;;;;;5097052;28;20036;-81
2020/12/16 08:08:43;;;;;;;36.60;17.65;;;5.40;99.90;;;;;;5096648;28;20028;-81
2020/12/16 08:11:12;;;;;;;33.15;16.40;;;5.40;99.90;;;;;;5095184;28;20036;-81
2020/12/16 08:13:38;;;;;;;35.67;16.10;;;5.40;99.90;;;;;;5096934;28;20075;-81
2020/12/16 08:16:05;;;;;;;31.52;15.80;;;5.30;99.90;;;;;;5098081;28;20050;-82
2020/12/16 08:18:31;;;;;;;31.60;15.70;;;7.60;99.90;;;;;;5096843;28;20036;-82
2020/12/16 08:20:57;;;;;;;30.80;15.45;;;5.40;99.90;;;;;;5094986;28;20414;-83
2020/12/16 08:23:23;;;;;;;30.00;14.88;;;5.30;99.90;;;;;;5095544;28;20032;-82
2020/12/16 08:25:48;;;;;;;32.63;14.90;;;5.30;99.90;;;;;;5095097;28;20048;-82
2020/12/16 08:28:24;;;;;;;29.63;15.15;;;5.30;99.90;;;;;;5095624;28;20036;-82
2020/12/16 08:30:52;;;;;;;26.70;14.05;;;5.40;99.90;;;;;;5098550;28;20090;-83
2020/12/16 08:33:18;;;;;;;27.27;14.50;;;5.40;99.90;;;;;;5096977;28;20074;-83
2020/12/16 08:35:49;;;;;;;27.80;13.70;;;5.40;99.90;;;;;;5097590;28;20095;-82
2020/12/16 08:38:23;;;;;;;28.15;14.52;;;5.40;99.90;;;;;;5096960;28;20139;-81
2020/12/16 08:40:49;;;;;;;30.38;15.25;;;5.40;99.90;;;;;;5098623;28;20400;-82
2020/12/16 08:43:19;;;;;;;32.78;15.13;;;5.50;99.90;;;;;;5098888;28;20039;-82
2020/12/16 08:45:46;;;;;;;33.00;16.13;;;5.50;99.90;;;;;;5099025;28;20032;-81
2020/12/16 08:48:12;;;;;;;29.77;15.27;;;5.60;99.90;;;;;;5098591;28;20036;-82
2020/12/16 08:50:38;;;;;;;31.85;16.00;;;5.50;99.90;;;;;;5096493;28;20036;-81
2020/12/16 08:53:04;;;;;;;32.80;15.73;;;5.60;99.90;;;;;;5095710;28;20032;-81
2020/12/16 08:55:33;;;;;;;35.15;15.93;;;5.60;99.90;;;;;;5094682;28;20054;-81
2020/12/16 08:57:59;;;;;;;34.75;16.85;;;5.70;99.90;;;;;;5095016;28;20044;-81
2020/12/16 09:00:30;;;;;;;31.50;15.63;;;5.70;99.90;;;;;;5093311;28;20085;-81
2020/12/16 09:03:05;;;;;;;56.97;24.80;;;5.90;99.90;;;;;;5097695;28;20105;-82
2020/12/16 09:05:32;;;;;;;41.08;19.52;;;5.90;99.90;;;;;;5095756;28;20032;-81
2020/12/16 09:08:09;;;;;;;39.85;17.30;;;5.90;99.90;;;;;;5095318;28;20466;-81
2020/12/16 09:10:36;;;;;;;41.17;18.20;;;6.00;99.90;;;;;;5094559;28;20057;-81
2020/12/16 09:13:09;;;;;;;35.10;16.60;;;6.10;99.90;;;;;;5095768;28;20063;-81
2020/12/16 09:15:35;;;;;;;34.03;16.77;;;6.00;99.90;;;;;;5096190;28;20036;-81
2020/12/16 09:18:01;;;;;;;42.20;18.85;;;6.10;99.90;;;;;;5095450;28;20459;-82
2020/12/16 09:20:27;;;;;;;35.17;16.42;;;6.10;99.90;;;;;;5095130;28;20040;-82
2020/12/16 09:22:54;;;;;;;37.95;16.20;;;6.10;99.90;;;;;;5096431;28;20039;-81
2020/12/16 09:25:20;;;;;;;33.78;16.98;;;6.20;99.90;;;;;;5094970;28;20044;-82
2020/12/16 09:27:50;;;;;;;37.83;16.77;;;6.30;99.90;;;;;;5097394;28;20107;-82
2020/12/16 09:30:30;;;;;;;35.50;16.50;;;6.40;99.90;;;;;;5095750;28;20512;-83
2020/12/16 09:32:56;;;;;;;40.72;16.25;;;6.50;99.90;;;;;;5096108;28;20058;-81
2020/12/16 09:35:23;;;;;;;35.95;16.80;;;6.50;99.90;;;;;;5096226;28;20040;-83
2020/12/16 09:37:49;;;;;;;38.83;17.50;;;6.60;99.90;;;;;;5099658;28;20064;-82
2020/12/16 09:40:16;;;;;;;41.15;17.88;;;6.70;99.90;;;;;;5095326;28;20042;-82
2020/12/16 09:42:53;;;;;;;38.97;18.02;;;6.70;99.90;;;;;;5094131;28;20047;-81
2020/12/16 09:45:20;;;;;;;32.92;15.85;;;6.80;99.90;;;;;;5094272;28;20039;-81
2020/12/16 09:47:47;;;;;;;31.45;15.43;;;6.80;99.90;;;;;;5095262;28;20054;-81
2020/12/16 09:50:14;;;;;;;28.80;14.38;;;6.80;99.90;;;;;;5091757;28;20066;-81
2020/12/16 09:52:40;;;;;;;28.98;14.40;;;6.70;99.90;;;;;;5092517;28;20035;-81
2020/12/16 09:55:14;;;;;;;30.30;15.43;;;6.60;99.90;;;;;;5094224;28;20519;-81
2020/12/16 09:57:41;;;;;;;34.78;15.70;;;6.50;99.90;;;;;;5095205;28;20131;-82
2020/12/16 10:00:07;;;;;;;32.42;15.77;;;6.60;99.90;;;;;;5096568;28;20071;-82
2020/12/16 10:02:33;;;;;;;31.92;15.75;;;6.60;99.90;;;;;;5095140;28;20070;-81
2020/12/16 10:04:59;;;;;;;37.13;16.92;;;6.70;99.90;;;;;;5095245;28;20386;-81
2020/12/16 10:07:24;;;;;;;42.15;16.42;;;6.80;99.90;;;;;;5096780;28;20036;-81
2020/12/16 10:09:54;;;;;;;37.38;17.70;;;7.00;99.90;;;;;;5096580;28;20444;-81
2020/12/16 10:12:20;;;;;;;;;;;7.30;99.90;;;;;;5096525;28;20092;-81
2020/12/16 10:14:47;;;;;;;36.22;16.63;;;7.50;99.90;;;;;;5095604;28;19915;-81
2020/12/16 10:17:13;;;;;;;41.05;17.85;;;7.80;99.90;;;;;;5094697;28;20040;-81
2020/12/16 10:19:39;;;;;;;33.95;16.48;;;8.00;99.90;;;;;;5093474;28;20042;-81
2020/12/16 10:22:05;;;;;;;29.63;13.93;;;8.20;99.90;;;;;;5095147;28;20127;-81
2020/12/16 10:24:30;;;;;;;28.30;14.02;;;8.50;99.90;;;;;;5095890;28;20075;-81
2020/12/16 10:26:56;;;;;;;28.45;13.55;;;9.00;99.90;;;;;;5093688;28;20075;-81
2020/12/16 10:29:22;;;;;;;24.90;13.00;;;9.50;99.90;;;;;;5092994;28;20042;-79
2020/12/16 10:31:49;;;;;;;13.50;7.43;;;9.60;99.90;;;;;;5089352;28;20044;-81
2020/12/16 10:34:15;;;;;;;22.88;11.77;;;9.40;99.90;;;;;;5089838;28;20517;-81
2020/12/16 10:36:41;;;;;;;24.42;10.95;;;9.70;99.90;;;;;;5089720;28;20143;-81
2020/12/16 10:39:07;;;;;;;22.58;11.60;;;9.90;99.90;;;;;;5089394;28;20114;-81
2020/12/16 10:41:32;;;;;;;25.05;12.57;;;9.80;99.90;;;;;;5089185;28;20536;-82
2020/12/16 10:43:58;;;;;;;16.77;7.68;;;9.60;99.90;;;;;;5088705;28;20433;-81
2020/12/16 10:46:24;;;;;;;21.20;11.23;;;9.60;99.90;;;;;;5088193;28;20047;-81
2020/12/16 10:48:50;;;;;;;27.35;12.00;;;9.00;99.90;;;;;;5089302;28;20036;-81
2020/12/16 10:51:16;;;;;;;11.55;5.18;;;9.10;99.90;;;;;;5088427;28;20043;-81
2020/12/16 10:53:42;;;;;;;26.55;11.27;;;9.20;99.90;;;;;;5088721;28;20055;-81
2020/12/16 10:56:09;;;;;;;26.02;12.05;;;9.40;99.90;;;;;;5089224;28;20044;-81
2020/12/16 10:58:34;;;;;;;25.33;13.13;;;9.70;99.90;;;;;;5088456;28;20081;-82
2020/12/16 11:01:01;;;;;;;17.33;8.65;;;10.20;99.90;;;;;;5091017;28;20035;-81
2020/12/16 11:03:26;;;;;;;25.80;13.02;;;10.10;99.90;;;;;;5092271;28;20079;-82
2020/12/16 11:05:53;;;;;;;25.95;13.20;;;9.80;99.90;;;;;;5098717;28;20551;-80
2020/12/16 11:08:19;;;;;;;29.15;13.43;;;9.70;99.90;;;;;;5100153;28;20032;-82
2020/12/16 11:10:49;;;;;;;22.42;11.07;;;9.60;99.90;;;;;;5100694;28;20528;-83
2020/12/16 11:13:14;;;;;;;26.60;12.77;;;9.70;99.90;;;;;;5099724;28;20036;-83
2020/12/16 11:15:40;;;;;;;20.40;10.52;;;9.50;99.90;;;;;;5097779;28;20047;-81
2020/12/16 11:18:06;;;;;;;25.73;11.60;;;9.20;99.90;;;;;;5096198;28;20048;-81
2020/12/16 11:20:32;;;;;;;27.05;11.70;;;9.40;99.90;;;;;;5098017;28;20059;-80
2020/12/16 11:22:58;;;;;;;14.43;6.35;;;9.60;99.90;;;;;;5099878;28;20485;-80
2020/12/16 11:25:23;;;;;;;22.95;11.70;;;9.40;99.90;;;;;;5100387;28;20050;-81
2020/12/16 11:27:49;;;;;;;11.50;6.10;;;9.20;99.90;;;;;;5098305;28;20040;-81
2020/12/16 11:30:14;;;;;;;21.73;10.10;;;9.20;99.90;;;;;;5096886;28;20130;-83
2020/12/16 11:32:40;;;;;;;19.90;10.27;;;9.20;99.90;;;;;;5096644;28;20075;-79
2020/12/16 11:35:06;;;;;;;17.75;9.65;;;9.20;99.90;;;;;;5096925;28;20055;-79
2020/12/16 11:37:32;;;;;;;22.65;10.75;;;9.10;99.90;;;;;;5098012;28;20054;-79
2020/12/16 11:39:59;;;;;;;22.20;10.88;;;9.20;99.90;;;;;;5098908;28;20439;-80
2020/12/16 11:42:25;;;;;;;19.73;10.05;;;9.70;99.90;;;;;;5097601;28;20063;-81
2020/12/16 11:44:52;;;;;;;20.38;8.82;;;9.90;99.90;;;;;;5098518;28;20512;-79
2020/12/16 11:47:17;;;;;;;21.45;10.15;;;9.40;99.90;;;;;;5094581;28;20420;-79
2020/12/16 11:49:43;;;;;;;19.00;9.13;;;9.20;99.90;;;;;;5083466;28;20055;-81
2020/12/16 11:52:09;;;;;;;19.10;9.90;;;9.40;99.90;;;;;;5100844;28;20070;-80
2020/12/16 11:54:35;;;;;;;18.48;10.13;;;10.00;99.90;;;;;;5100541;28;20119;-80
2020/12/16 11:57:01;;;;;;;16.88;7.63;;;10.30;99.90;;;;;;5098111;28;20485;-81
2020/12/16 11:59:27;;;;;;;18.58;9.57;;;10.90;99.90;;;;;;5084785;28;20111;-79
2020/12/16 12:01:54;;;;;;;17.30;8.93;;;10.50;99.90;;;;;;5078701;28;20482;-80
2020/12/16 12:04:19;;;;;;;13.05;7.22;;;10.40;99.90;;;;;;5098553;28;20055;-81
2020/12/16 12:06:45;;;;;;;24.95;9.85;;;10.20;99.90;;;;;;5094529;28;20410;-80
2020/12/16 12:09:12;;;;;;;17.42;10.02;;;10.30;99.90;;;;;;5075835;28;20406;-81
2020/12/16 12:11:37;;;;;;;15.60;8.43;;;10.50;99.90;;;;;;5076808;28;20056;-81
2020/12/16 12:14:03;;;;;;;14.15;7.82;;;10.80;99.90;;;;;;5075848;28;20394;-80
2020/12/16 12:16:28;;;;;;;15.80;7.70;;;10.30;99.90;;;;;;5080835;28;20105;-80
2020/12/16 12:18:54;;;;;;;15.75;8.55;;;10.50;99.90;;;;;;5096371;28;20051;-80
2020/12/16 12:21:20;;;;;;;13.68;6.88;;;10.70;99.90;;;;;;5096080;28;20094;-81
2020/12/16 12:23:46;;;;;;;12.07;5.78;;;10.80;99.90;;;;;;5097669;28;20044;-80
2020/12/16 12:26:12;;;;;;;13.45;7.35;;;10.80;99.90;;;;;;5097785;28;20447;-81
2020/12/16 12:28:38;;;;;;;12.60;6.95;;;10.80;99.90;;;;;;5097080;28;20086;-80
2020/12/16 12:31:04;;;;;;;10.75;5.03;;;11.00;99.90;;;;;;5099297;28;20043;-81
2020/12/16 12:33:29;;;;;;;14.57;7.63;;;10.60;99.90;;;;;;5096747;28;20139;-80
2020/12/16 12:35:55;;;;;;;13.38;7.20;;;10.30;99.90;;;;;;5097703;28;20044;-81
2020/12/16 12:38:20;;;;;;;15.13;7.18;;;10.20;99.90;;;;;;5098539;28;20162;-81